Savoonga Airport Savoonga US
ICAO: PASA
IATA:
Category: Medium
Scheduled Services:

Elevation: 53 ft
TransAlt. 18000 ft.

Airport Communications:
AWOS 3:121.3
CTAF:122.7
NOME RDO:122.3

PASA Zoom In..

If you have problems with the map follow the link
https://www.worldairports.se/pages/airport.php?
ICAO=PASA

Runways:

(A) RW 05 length 4400 ft width 100 ft
---- / hdg 50

(B) RW 23 length 4400 ft width 100 ft
---- / hdg 230

Location; PASA
Day. 21 / Time. 13.56 Zulu
* Altimeter: 29.37
* Temperature: -07° c. -19.4°f.
* Wind from: 080° Speed 16 kn.
Dewpoint: -08° c.
Visibility: 9 Statute Miles.
Clouds: Overcast 700 ft.

PASA 211356Z AUTO 08016KT 9SM UP OVC007 M07/M08 A2937 RMK AO2 UPB11E26B55SNB02E11B46E55 SLP946 P0000 T10721083 FZRANO


Wind From 080°
Speed 16 kn.

 
 
jpsmedia worldairports.se 2020   terms of use